createdAt,value
2018-04-27T00:01:44.445Z,77.45
2018-04-27T00:02:44.487Z,78.02
2018-04-27T00:04:37.479Z,78.11
2018-04-27T00:05:37.525Z,78.02
2018-04-27T00:07:30.512Z,78.11
2018-04-27T00:08:30.562Z,78.11
2018-04-27T00:10:23.554Z,77.45
2018-04-27T00:11:23.608Z,77.92
2018-04-27T00:13:16.602Z,77.83
2018-04-27T00:14:16.652Z,78.02
2018-04-27T00:16:09.631Z,78.69
2018-04-27T00:17:09.691Z,78.59
2018-04-27T00:19:02.682Z,78.30
2018-04-27T00:20:02.731Z,77.92
2018-04-27T00:21:55.716Z,78.69
2018-04-27T00:22:55.767Z,77.92
2018-04-27T00:24:48.748Z,77.83
2018-04-27T00:25:48.808Z,78.02
2018-04-27T00:27:41.796Z,78.17
2018-04-27T00:28:41.848Z,77.92
2018-04-27T00:30:34.829Z,77.73
2018-04-27T00:31:34.886Z,78.27
2018-04-27T00:33:27.877Z,78.36
2018-04-27T00:34:27.988Z,78.11
2018-04-27T00:36:20.906Z,78.21
2018-04-27T00:37:20.964Z,78.59
2018-04-27T00:39:13.948Z,78.30
2018-04-27T00:40:14.000Z,78.02
2018-04-27T00:42:07.041Z,78.40
2018-04-27T00:43:07.040Z,78.50
2018-04-27T00:45:00.025Z,78.11
2018-04-27T00:46:00.086Z,77.83
2018-04-27T00:47:53.077Z,78.69
2018-04-27T00:48:53.125Z,78.40
2018-04-27T00:50:46.112Z,77.98
2018-04-27T00:51:46.168Z,78.08
2018-04-27T00:53:39.154Z,77.89
2018-04-27T00:54:39.203Z,77.98
2018-04-27T00:56:32.186Z,78.64
2018-04-27T00:57:32.243Z,78.64
2018-04-27T00:59:25.230Z,78.08
2018-04-27T01:00:25.282Z,77.89
2018-04-27T01:02:18.276Z,78.64
2018-04-27T01:03:18.333Z,78.83
2018-04-27T01:05:11.306Z,78.17
2018-04-27T01:06:11.367Z,77.89
2018-04-27T01:08:04.358Z,77.98
2018-04-27T01:09:04.409Z,78.64
2018-04-27T01:10:57.387Z,77.89
2018-04-27T01:11:57.446Z,78.27
2018-04-27T01:13:50.432Z,77.70
2018-04-27T01:14:50.484Z,78.27
2018-04-27T01:16:43.467Z,78.17
2018-04-27T01:17:43.534Z,78.17
2018-04-27T01:19:36.518Z,77.98
2018-04-27T01:20:36.670Z,77.89
2018-04-27T01:22:29.556Z,79.12
2018-04-27T01:23:29.608Z,79.22
2018-04-27T01:25:22.587Z,78.45
2018-04-27T01:26:22.647Z,78.83
2018-04-27T01:28:15.631Z,78.08
2018-04-27T01:29:15.681Z,78.55
2018-04-27T01:31:08.661Z,78.36
2018-04-27T01:32:08.719Z,79.12
2018-04-27T01:34:01.706Z,78.36
2018-04-27T01:35:01.758Z,78.36
2018-04-27T01:36:54.740Z,78.55
2018-04-27T01:37:54.799Z,79.12
2018-04-27T01:39:47.783Z,79.03
2018-04-27T01:40:47.834Z,78.83
2018-04-27T01:42:40.826Z,79.22
2018-04-27T01:43:40.876Z,79.50
2018-04-27T01:45:33.854Z,78.45
2018-04-27T01:46:33.912Z,78.74
2018-04-27T01:48:26.898Z,78.99
2018-04-27T01:49:26.951Z,78.89
2018-04-27T01:51:19.935Z,78.89
2018-04-27T01:52:19.995Z,78.42
2018-04-27T01:54:12.979Z,77.75
2018-04-27T01:55:13.032Z,77.75
2018-04-27T01:57:06.013Z,78.70
2018-04-27T01:58:06.072Z,78.61
2018-04-27T01:59:59.056Z,77.84
2018-04-27T02:00:59.107Z,77.84
2018-04-27T02:02:52.098Z,77.84
2018-04-27T02:03:52.153Z,78.61
2018-04-27T02:05:45.134Z,78.70
2018-04-27T02:06:45.186Z,78.03
2018-04-27T02:08:38.177Z,77.94
2018-04-27T02:09:38.225Z,77.84
2018-04-27T02:11:31.215Z,78.80
2018-04-27T02:12:31.268Z,78.70
2018-04-27T02:14:24.259Z,78.51
2018-04-27T02:15:24.317Z,78.61
2018-04-27T02:17:17.286Z,78.70
2018-04-27T02:18:17.343Z,78.80
2018-04-27T02:20:10.329Z,78.80
2018-04-27T02:21:10.379Z,78.80
2018-04-27T02:23:03.371Z,77.84
2018-04-27T02:24:03.418Z,77.94
2018-04-27T02:25:56.400Z,78.03
2018-04-27T02:26:56.455Z,78.23
2018-04-27T02:28:49.438Z,78.70
2018-04-27T02:29:49.490Z,78.42
2018-04-27T02:31:42.475Z,78.51
2018-04-27T02:32:42.531Z,77.94
2018-04-27T02:34:35.514Z,78.61
2018-04-27T02:35:35.567Z,78.89
2018-04-27T02:37:28.547Z,78.99
2018-04-27T02:38:28.608Z,78.70
2018-04-27T02:40:21.591Z,77.75
2018-04-27T02:41:21.640Z,77.75
2018-04-27T02:43:14.632Z,78.23
2018-04-27T02:44:14.675Z,78.70
2018-04-27T02:46:07.654Z,78.80
2018-04-27T02:47:07.712Z,78.32
2018-04-27T02:49:00.696Z,78.70
2018-04-27T02:50:00.748Z,78.61
2018-04-27T02:51:53.726Z,78.61
2018-04-27T02:52:53.784Z,78.32
2018-04-27T02:54:46.770Z,78.42
2018-04-27T02:55:46.946Z,78.61
2018-04-27T02:57:39.807Z,78.89
2018-04-27T02:58:39.862Z,78.51
2018-04-27T03:00:32.847Z,78.61
2018-04-27T03:01:32.893Z,78.51
2018-04-27T03:03:25.877Z,78.19
2018-04-27T03:04:25.928Z,78.61
2018-04-27T03:06:18.915Z,78.38
2018-04-27T03:07:18.973Z,78.85
2018-04-27T03:09:11.959Z,78.66
2018-04-27T03:10:12.013Z,78.28
2018-04-27T03:12:04.994Z,78.80
2018-04-27T03:13:05.052Z,78.61
2018-04-27T03:14:58.036Z,78.32
2018-04-27T03:15:58.089Z,78.32
2018-04-27T03:17:51.067Z,78.32
2018-04-27T03:18:51.126Z,79.08
2018-04-27T03:20:44.111Z,78.80
2018-04-27T03:21:44.165Z,78.89
2018-04-27T03:23:37.161Z,78.70
2018-04-27T03:24:37.202Z,79.17
2018-04-27T03:26:30.186Z,78.89
2018-04-27T03:27:30.238Z,78.70
2018-04-27T03:29:23.221Z,78.61
2018-04-27T03:30:23.275Z,78.38
2018-04-27T03:32:16.253Z,78.23
2018-04-27T03:33:16.308Z,78.80
2018-04-27T03:35:09.295Z,78.51
2018-04-27T03:36:09.347Z,78.51
2018-04-27T03:38:02.338Z,78.42
2018-04-27T03:39:02.397Z,78.23
2018-04-27T03:40:55.382Z,78.13
2018-04-27T03:41:55.435Z,78.70
2018-04-27T03:43:48.420Z,79.08
2018-04-27T03:44:48.472Z,79.08
2018-04-27T03:46:41.450Z,78.42
2018-04-27T03:47:41.508Z,77.84
2018-04-27T03:49:34.494Z,77.84
2018-04-27T03:50:34.545Z,78.13
2018-04-27T03:52:27.527Z,78.23
2018-04-27T03:53:27.582Z,78.66
2018-04-27T03:55:20.567Z,77.56
2018-04-27T03:56:20.619Z,77.71
2018-04-27T03:58:13.600Z,77.90
2018-04-27T03:59:13.657Z,77.81
2018-04-27T04:01:06.694Z,77.90
2018-04-27T04:02:06.694Z,77.71
2018-04-27T04:03:59.679Z,77.52
2018-04-27T04:04:59.730Z,77.81
2018-04-27T04:06:52.712Z,78.19
2018-04-27T04:07:52.768Z,77.90
2018-04-27T04:09:45.753Z,78.28
2018-04-27T04:10:45.804Z,78.56
2018-04-27T04:12:38.811Z,78.38
2018-04-27T04:13:38.864Z,77.62
2018-04-27T04:15:31.829Z,77.81
2018-04-27T04:16:31.879Z,77.62
2018-04-27T04:18:24.860Z,77.90
2018-04-27T04:19:24.917Z,78.38
2018-04-27T04:21:17.902Z,78.66
2018-04-27T04:22:17.955Z,79.04
2018-04-27T04:24:10.943Z,78.75
2018-04-27T04:25:10.991Z,78.56
2018-04-27T04:27:03.972Z,78.47
2018-04-27T04:28:04.032Z,78.38
2018-04-27T04:29:57.011Z,77.90
2018-04-27T04:30:57.063Z,78.00
2018-04-27T04:32:50.042Z,77.90
2018-04-27T04:33:50.099Z,78.56
2018-04-27T04:35:43.130Z,78.95
2018-04-27T04:36:43.260Z,78.85
2018-04-27T04:38:36.119Z,78.28
2018-04-27T04:39:36.178Z,77.81
2018-04-27T04:41:29.161Z,78.28
2018-04-27T04:42:29.212Z,78.09
2018-04-27T04:44:22.197Z,78.47
2018-04-27T04:45:22.247Z,78.66
2018-04-27T04:47:15.229Z,78.00
2018-04-27T04:48:15.285Z,78.38
2018-04-27T04:50:08.270Z,78.19
2018-04-27T04:51:08.323Z,78.38
2018-04-27T04:53:01.311Z,78.66
2018-04-27T04:54:01.360Z,78.66
2018-04-27T04:55:54.356Z,78.56
2018-04-27T04:56:54.397Z,78.38
2018-04-27T04:58:47.385Z,78.19
2018-04-27T04:59:47.443Z,78.56
2018-04-27T05:01:40.431Z,78.09
2018-04-27T05:02:40.485Z,78.19
2018-04-27T05:04:33.469Z,78.32
2018-04-27T05:05:33.521Z,77.84
2018-04-27T05:07:26.500Z,77.84
2018-04-27T05:08:26.558Z,78.03
2018-04-27T05:10:19.541Z,78.03
2018-04-27T05:11:19.594Z,77.75
2018-04-27T05:13:12.608Z,77.09
2018-04-27T05:14:12.663Z,77.28
2018-04-27T05:16:05.656Z,76.42
2018-04-27T05:17:05.707Z,76.61
2018-04-27T05:18:58.684Z,76.61
2018-04-27T05:19:58.745Z,76.04
2018-04-27T05:21:51.743Z,76.14
2018-04-27T05:22:51.779Z,76.04
2018-04-27T05:24:44.767Z,75.57
2018-04-27T05:25:44.815Z,75.47
2018-04-27T05:27:37.795Z,75.57
2018-04-27T05:28:37.853Z,75.76
2018-04-27T05:30:30.844Z,75.67
2018-04-27T05:31:30.889Z,75.57
2018-04-27T05:33:23.869Z,76.04
2018-04-27T05:34:23.925Z,75.57
2018-04-27T05:36:16.917Z,75.57
2018-04-27T05:37:16.962Z,76.04
2018-04-27T05:39:09.945Z,75.79
2018-04-27T05:40:10.002Z,75.70
2018-04-27T05:42:03.039Z,75.89
2018-04-27T05:43:03.038Z,76.27
2018-04-27T05:44:56.024Z,77.03
2018-04-27T05:45:56.076Z,77.70
2018-04-27T05:47:49.056Z,78.21
2018-04-27T05:48:49.115Z,78.78
2018-04-27T05:50:42.147Z,79.54
2018-04-27T05:51:42.195Z,79.54
2018-04-27T05:53:35.692Z,79.54
2018-04-27T05:54:35.743Z,79.49
2018-04-27T05:56:28.728Z,79.58
2018-04-27T05:57:28.781Z,80.15
2018-04-27T05:59:21.762Z,79.96
2018-04-27T06:00:21.821Z,80.15
2018-04-27T06:02:14.807Z,81.20
2018-04-27T06:03:14.859Z,80.95
2018-04-27T06:05:07.855Z,81.43
2018-04-27T06:06:07.906Z,81.76
2018-04-27T06:08:00.887Z,81.85
2018-04-27T06:09:00.945Z,83.03
2018-04-27T06:10:53.936Z,83.97
2018-04-27T06:11:53.985Z,85.88
2018-04-27T06:13:46.967Z,84.92
2018-04-27T06:14:47.027Z,85.15
2018-04-27T06:16:40.017Z,85.33
2018-04-27T06:17:40.066Z,85.47
2018-04-27T06:19:33.047Z,83.64
2018-04-27T06:20:33.107Z,82.53
2018-04-27T06:22:26.099Z,75.43
2018-04-27T06:23:26.152Z,71.92
2018-04-27T06:25:19.145Z,72.30
2018-04-27T06:26:19.198Z,70.06
2018-04-27T06:28:12.185Z,73.95
2018-04-27T06:29:12.247Z,75.96
2018-04-27T06:31:05.237Z,76.79
2018-04-27T06:32:05.296Z,77.99
2018-04-27T06:33:58.290Z,73.57
2018-04-27T06:34:58.353Z,71.40
2018-04-27T06:36:51.349Z,67.50
2018-04-27T06:37:51.405Z,66.10
2018-04-27T06:39:44.394Z,63.32
2018-04-27T06:40:44.474Z,63.60
2018-04-27T06:42:37.463Z,63.22
2018-04-27T06:43:37.530Z,62.29
2018-04-27T06:45:30.519Z,61.43
2018-04-27T06:46:30.580Z,60.60
2018-04-27T06:48:23.579Z,57.23
2018-04-27T06:49:23.637Z,57.26
2018-04-27T06:51:16.639Z,54.47
2018-04-27T06:52:16.697Z,55.15
2018-04-27T06:54:09.701Z,56.40
2018-04-27T06:55:09.766Z,54.22
2018-04-27T06:57:02.768Z,55.63
2018-04-27T06:58:02.825Z,55.18
2018-04-27T06:59:55.827Z,53.31
2018-04-27T07:00:55.893Z,53.14
2018-04-27T07:02:48.905Z,51.70
2018-04-27T07:03:48.959Z,51.76
2018-04-27T07:05:41.967Z,51.89
2018-04-27T07:06:42.029Z,51.70
2018-04-27T07:08:35.026Z,49.73
2018-04-27T07:09:35.096Z,49.43
2018-04-27T07:11:28.109Z,51.09
2018-04-27T07:12:28.167Z,52.70
2018-04-27T07:14:21.167Z,53.47
2018-04-27T07:15:21.236Z,52.80
2018-04-27T07:17:14.243Z,51.09
2018-04-27T07:18:14.302Z,51.35
2018-04-27T07:20:07.308Z,50.85
2018-04-27T07:21:07.373Z,50.21
2018-04-27T07:23:00.384Z,47.34
2018-04-27T07:24:00.444Z,47.72
2018-04-27T07:25:53.511Z,47.44
2018-04-27T07:26:53.513Z,46.64
2018-04-27T07:28:46.517Z,46.51
2018-04-27T07:29:46.582Z,44.68
2018-04-27T07:31:39.592Z,43.18
2018-04-27T07:32:39.656Z,43.18
2018-04-27T07:34:32.663Z,42.65
2018-04-27T07:35:32.731Z,40.81
2018-04-27T07:37:25.740Z,40.78
2018-04-27T07:38:25.802Z,40.88
2018-04-27T07:40:18.815Z,40.61
2018-04-27T07:41:18.890Z,40.53
2018-04-27T07:43:11.902Z,38.56
2018-04-27T07:44:11.969Z,37.61
2018-04-27T07:46:04.981Z,37.34
2018-04-27T07:47:05.046Z,38.87
2018-04-27T07:48:58.052Z,40.42
2018-04-27T07:49:58.120Z,39.69
2018-04-27T07:51:51.140Z,38.68
2018-04-27T07:52:51.207Z,39.28
2018-04-27T07:54:44.217Z,38.93
2018-04-27T07:55:44.285Z,38.13
2018-04-27T07:57:37.300Z,39.20
2018-04-27T07:58:37.367Z,38.71
2018-04-27T08:00:30.378Z,38.71
2018-04-27T08:01:30.452Z,37.15
2018-04-27T08:03:23.467Z,37.12
2018-04-27T08:04:23.532Z,37.12
2018-04-27T08:06:16.564Z,37.96
2018-04-27T08:07:16.663Z,37.87
2018-04-27T08:09:09.640Z,38.56
2018-04-27T08:10:09.720Z,37.83
2018-04-27T08:12:02.726Z,41.68
2018-04-27T08:13:02.792Z,43.71
2018-04-27T08:14:55.800Z,44.14
2018-04-27T08:15:55.869Z,46.36
2018-04-27T08:17:48.890Z,46.55
2018-04-27T08:18:48.956Z,45.90
2018-04-27T08:20:41.961Z,46.95
2018-04-27T08:21:42.032Z,46.57
2018-04-27T08:23:35.038Z,46.59
2018-04-27T08:24:35.162Z,46.50
2018-04-27T08:26:28.112Z,45.42
2018-04-27T08:27:28.177Z,45.78
2018-04-27T08:29:21.197Z,46.62
2018-04-27T08:30:21.262Z,47.97
2018-04-27T08:32:14.262Z,48.93
2018-04-27T08:33:14.323Z,48.93
2018-04-27T08:35:07.329Z,49.29
2018-04-27T08:36:07.425Z,49.55
2018-04-27T08:38:00.404Z,49.82
2018-04-27T08:39:00.476Z,49.52
2018-04-27T08:40:53.471Z,50.17
2018-04-27T08:41:53.538Z,50.84
2018-04-27T08:43:46.616Z,52.45
2018-04-27T08:44:46.601Z,52.95
2018-04-27T08:46:39.605Z,51.87
2018-04-27T08:47:39.666Z,51.68
2018-04-27T08:49:32.664Z,53.09
2018-04-27T08:50:32.827Z,53.48
2018-04-27T08:52:25.733Z,53.58
2018-04-27T08:53:25.796Z,53.38
2018-04-27T08:55:18.793Z,53.67
2018-04-27T08:56:18.855Z,53.38
2018-04-27T08:58:11.859Z,53.70
2018-04-27T08:59:11.917Z,53.48
2018-04-27T09:01:04.918Z,53.77
2018-04-27T09:02:04.985Z,54.56
2018-04-27T09:03:57.995Z,54.56
2018-04-27T09:04:58.059Z,54.24
2018-04-27T09:06:51.056Z,53.82
2018-04-27T09:07:51.116Z,52.86
2018-04-27T09:09:44.111Z,52.28
2018-04-27T09:10:44.177Z,52.48
2018-04-27T09:12:37.182Z,52.28
2018-04-27T09:13:37.239Z,51.25
2018-04-27T09:15:30.241Z,51.76
2018-04-27T09:16:30.301Z,51.16
2018-04-27T09:18:23.313Z,51.35
2018-04-27T09:19:23.376Z,50.58
2018-04-27T09:21:16.370Z,50.96
2018-04-27T09:22:16.437Z,51.06
2018-04-27T09:25:09.496Z,53.36
2018-04-27T09:27:02.497Z,50.87
2018-04-27T09:28:02.559Z,51.25
2018-04-27T09:29:55.553Z,51.83
2018-04-27T09:30:55.620Z,52.60
2018-04-27T09:32:48.623Z,51.16
2018-04-27T09:33:48.681Z,51.73
2018-04-27T09:35:41.678Z,51.04
2018-04-27T09:36:41.745Z,52.40
2018-04-27T09:38:34.747Z,53.27
2018-04-27T09:39:34.811Z,52.40
2018-04-27T09:41:27.804Z,52.50
2018-04-27T09:42:27.872Z,53.27
2018-04-27T09:44:20.882Z,51.73
2018-04-27T09:45:20.934Z,51.61
2018-04-27T09:47:13.931Z,53.08
2018-04-27T09:48:13.990Z,52.40
2018-04-27T09:50:06.986Z,52.53
2018-04-27T09:51:07.048Z,52.31
2018-04-27T09:53:00.564Z,54.11
2018-04-27T09:54:00.619Z,55.26
2018-04-27T09:55:53.625Z,53.72
2018-04-27T09:56:53.688Z,52.95
2018-04-27T09:58:46.690Z,53.75
2018-04-27T09:59:46.748Z,54.80
2018-04-27T10:01:39.742Z,53.94
2018-04-27T10:02:39.808Z,55.47
2018-04-27T10:04:32.809Z,54.71
2018-04-27T10:05:32.867Z,55.77
2018-04-27T10:07:25.867Z,55.32
2018-04-27T10:08:25.927Z,54.83
2018-04-27T10:10:18.924Z,54.19
2018-04-27T10:11:18.988Z,53.30
2018-04-27T10:13:11.996Z,53.39
2018-04-27T10:14:12.053Z,52.75
2018-04-27T10:16:05.047Z,52.91
2018-04-27T10:17:05.112Z,52.72
2018-04-27T10:18:58.115Z,52.34
2018-04-27T10:19:58.174Z,52.24
2018-04-27T10:21:51.173Z,52.98
2018-04-27T10:22:51.240Z,52.89
2018-04-27T10:24:44.242Z,53.08
2018-04-27T10:25:44.300Z,52.14
2018-04-27T10:27:37.302Z,54.35
2018-04-27T10:28:37.362Z,52.40
2018-04-27T10:30:30.354Z,54.35
2018-04-27T10:31:30.420Z,53.87
2018-04-27T10:33:23.421Z,53.17
2018-04-27T10:34:23.480Z,54.04
2018-04-27T10:36:16.478Z,53.56
2018-04-27T10:37:16.540Z,52.69
2018-04-27T10:39:09.544Z,51.16
2018-04-27T10:40:09.602Z,52.40
2018-04-27T10:42:02.595Z,52.76
2018-04-27T10:43:02.746Z,52.67
2018-04-27T10:44:55.660Z,53.24
2018-04-27T10:45:55.720Z,53.44
2018-04-27T10:47:48.727Z,52.28
2018-04-27T10:48:48.778Z,52.76
2018-04-27T10:50:41.774Z,52.64
2018-04-27T10:51:41.840Z,53.31
2018-04-27T10:53:35.350Z,53.72
2018-04-27T10:54:35.406Z,53.53
2018-04-27T10:56:28.399Z,52.79
2018-04-27T10:57:28.464Z,52.40
2018-04-27T10:59:21.465Z,53.17
2018-04-27T11:00:21.530Z,52.89
2018-04-27T11:02:14.522Z,52.91
2018-04-27T11:03:14.631Z,52.69
2018-04-27T11:05:07.585Z,51.67
2018-04-27T11:06:07.645Z,51.64
2018-04-27T11:08:00.648Z,51.35
2018-04-27T11:09:00.704Z,51.83
2018-04-27T11:10:53.712Z,51.35
2018-04-27T11:11:54.124Z,51.37
2018-04-27T11:13:46.763Z,52.81
2018-04-27T11:14:46.822Z,52.53
2018-04-27T11:16:39.816Z,50.42
2018-04-27T11:17:39.884Z,50.51
2018-04-27T11:19:32.884Z,47.92
2018-04-27T11:20:32.940Z,49.74
2018-04-27T11:22:25.944Z,51.86
2018-04-27T11:23:26.007Z,52.72
2018-04-27T11:25:19.014Z,48.69
2018-04-27T11:26:19.072Z,48.13
2018-04-27T11:28:12.073Z,50.34
2018-04-27T11:29:12.131Z,49.77
2018-04-27T11:31:05.126Z,47.99
2018-04-27T11:32:05.191Z,49.05
2018-04-27T11:33:58.194Z,51.09
2018-04-27T11:34:58.250Z,51.28
2018-04-27T11:36:51.257Z,48.11
2018-04-27T11:37:51.437Z,47.63
2018-04-27T11:39:44.317Z,47.66
2018-04-27T11:40:44.374Z,48.43
2018-04-27T11:42:37.378Z,49.96
2018-04-27T11:43:37.449Z,51.14
2018-04-27T11:45:30.437Z,48.35
2018-04-27T11:46:30.496Z,47.68
2018-04-27T11:48:23.497Z,46.89
2018-04-27T11:49:23.554Z,47.08
2018-04-27T11:51:16.549Z,47.27
2018-04-27T11:52:16.615Z,50.05
2018-04-27T11:54:09.615Z,47.27
2018-04-27T11:55:09.674Z,47.08
2018-04-27T11:57:02.681Z,48.43
2018-04-27T11:58:02.740Z,47.34
2018-04-27T11:59:55.742Z,48.88
2018-04-27T12:00:55.801Z,48.28
2018-04-27T12:02:48.797Z,48.47
2018-04-27T12:03:48.866Z,47.89
2018-04-27T12:05:41.859Z,48.28
2018-04-27T12:06:41.920Z,49.05
2018-04-27T12:08:34.920Z,51.09
2018-04-27T12:09:34.978Z,49.46
2018-04-27T12:11:27.971Z,47.41
2018-04-27T12:12:28.036Z,47.03
2018-04-27T12:14:21.038Z,49.05
2018-04-27T12:15:21.106Z,49.26
2018-04-27T12:17:14.090Z,47.92
2018-04-27T12:18:14.154Z,47.82
2018-04-27T12:20:07.187Z,47.34
2018-04-27T12:21:07.211Z,46.79
2018-04-27T12:23:00.212Z,47.56
2018-04-27T12:24:00.272Z,46.69
2018-04-27T12:25:53.279Z,45.45
2018-04-27T12:26:53.339Z,46.43
2018-04-27T12:28:46.338Z,47.10
2018-04-27T12:29:46.398Z,46.14
2018-04-27T12:31:39.500Z,46.04
2018-04-27T12:32:39.458Z,43.64
2018-04-27T12:34:32.464Z,43.52
2018-04-27T12:35:32.519Z,44.58
2018-04-27T12:37:25.505Z,45.04
2018-04-27T12:38:25.574Z,45.01
2018-04-27T12:40:18.588Z,46.55
2018-04-27T12:41:18.635Z,46.94
2018-04-27T12:43:11.627Z,46.45
2018-04-27T12:44:11.703Z,47.03
2018-04-27T12:46:05.204Z,46.65
2018-04-27T12:47:05.259Z,46.45
2018-04-27T12:48:58.268Z,45.68
2018-04-27T12:49:58.323Z,45.98
2018-04-27T12:51:51.317Z,46.07
2018-04-27T12:52:51.381Z,47.05
2018-04-27T12:54:44.380Z,47.34
2018-04-27T12:55:44.439Z,45.04
2018-04-27T12:57:37.436Z,45.71
2018-04-27T12:58:37.498Z,45.90
2018-04-27T13:00:30.521Z,45.45
2018-04-27T13:01:30.565Z,44.87
2018-04-27T13:03:23.590Z,44.60
2018-04-27T13:04:23.657Z,44.99
2018-04-27T13:06:16.659Z,45.71
2018-04-27T13:07:16.714Z,46.19
2018-04-27T13:09:09.715Z,45.90
2018-04-27T13:10:09.773Z,46.67
2018-04-27T13:12:02.767Z,45.32
2018-04-27T13:13:02.832Z,46.48
2018-04-27T13:14:55.843Z,46.02
2018-04-27T13:15:55.897Z,46.02
2018-04-27T13:17:48.900Z,44.29
2018-04-27T13:18:48.965Z,44.68
2018-04-27T13:20:41.965Z,44.58
2018-04-27T13:21:42.026Z,44.89
2018-04-27T13:23:35.017Z,45.08
2018-04-27T13:24:35.086Z,45.18
2018-04-27T13:26:28.095Z,43.52
2018-04-27T13:27:28.140Z,43.14
2018-04-27T13:29:21.143Z,41.39
2018-04-27T13:30:21.203Z,42.06
2018-04-27T13:32:14.197Z,42.44
2018-04-27T13:33:14.260Z,41.58
2018-04-27T13:35:07.264Z,43.70
2018-04-27T13:36:07.319Z,43.91
2018-04-27T13:38:00.321Z,42.83
2018-04-27T13:39:00.389Z,44.56
2018-04-27T13:40:53.382Z,44.94
2018-04-27T13:41:53.440Z,44.84
2018-04-27T13:43:46.437Z,45.04
2018-04-27T13:44:46.499Z,43.70
2018-04-27T13:46:39.503Z,44.08
2018-04-27T13:47:39.565Z,43.88
2018-04-27T13:49:32.561Z,43.70
2018-04-27T13:50:32.616Z,44.94
2018-04-27T13:52:25.610Z,44.94
2018-04-27T13:53:25.844Z,45.04
2018-04-27T13:55:18.677Z,46.58
2018-04-27T13:56:18.737Z,46.58
2018-04-27T13:58:11.727Z,45.11
2018-04-27T13:59:11.793Z,44.73
2018-04-27T14:01:04.792Z,44.54
2018-04-27T14:02:04.869Z,46.48
2018-04-27T14:03:57.850Z,44.08
2018-04-27T14:04:57.910Z,43.98
2018-04-27T14:06:50.910Z,43.60
2018-04-27T14:07:50.968Z,44.65
2018-04-27T14:09:43.974Z,44.75
2018-04-27T14:10:44.029Z,43.70
2018-04-27T14:12:37.021Z,44.08
2018-04-27T14:13:37.084Z,44.75
2018-04-27T14:15:30.089Z,44.56
2018-04-27T14:16:30.139Z,46.00
2018-04-27T14:18:23.132Z,43.50
2018-04-27T14:19:23.198Z,43.88
2018-04-27T14:21:37.222Z,44.44
2018-04-27T14:22:16.262Z,44.73
2018-04-27T14:24:09.259Z,43.21
2018-04-27T14:25:09.332Z,44.84
2018-04-27T14:27:02.326Z,44.00
2018-04-27T14:28:02.381Z,43.04
2018-04-27T14:29:55.387Z,42.18
2018-04-27T14:30:55.439Z,42.08
2018-04-27T14:32:48.439Z,41.89
2018-04-27T14:33:48.548Z,42.25
2018-04-27T14:35:41.517Z,44.17
2018-04-27T14:36:41.560Z,42.73
2018-04-27T14:38:34.550Z,42.16
2018-04-27T14:39:34.626Z,42.35
2018-04-27T14:41:27.615Z,43.50
2018-04-27T14:42:27.678Z,43.23
2018-04-27T14:44:20.670Z,43.50
2018-04-27T14:45:20.730Z,42.83
2018-04-27T14:47:13.729Z,43.88
2018-04-27T14:48:13.789Z,43.60
2018-04-27T14:50:06.786Z,42.93
2018-04-27T14:51:06.851Z,42.35
2018-04-27T14:52:59.845Z,43.31
2018-04-27T14:53:59.908Z,43.88
2018-04-27T14:55:53.415Z,45.35
2018-04-27T14:56:53.483Z,43.98
2018-04-27T14:58:46.470Z,44.65
2018-04-27T14:59:46.540Z,44.56
2018-04-27T15:01:39.552Z,43.98
2018-04-27T15:02:39.595Z,44.84
2018-04-27T15:04:32.599Z,43.98
2018-04-27T15:05:32.661Z,43.88
2018-04-27T15:07:25.662Z,46.19
2018-04-27T15:08:25.741Z,45.23
2018-04-27T15:10:18.725Z,46.48
2018-04-27T15:11:18.780Z,44.27
2018-04-27T15:13:11.780Z,44.75
2018-04-27T15:14:11.844Z,45.81
2018-04-27T15:16:04.843Z,45.21
2018-04-27T15:17:04.905Z,45.40
2018-04-27T15:18:57.897Z,46.36
2018-04-27T15:19:57.962Z,46.36
2018-04-27T15:21:50.960Z,46.17
2018-04-27T15:22:51.020Z,45.88
2018-04-27T15:24:44.010Z,45.95
2018-04-27T15:25:44.075Z,46.91
2018-04-27T15:27:37.075Z,46.81
2018-04-27T15:28:37.130Z,46.62
2018-04-27T15:30:30.133Z,46.24
2018-04-27T15:31:30.191Z,46.72
2018-04-27T15:33:23.184Z,46.53
2018-04-27T15:34:23.249Z,46.17
2018-04-27T15:36:16.255Z,45.98
2018-04-27T15:37:16.313Z,45.98
2018-04-27T15:39:09.309Z,47.89
2018-04-27T15:40:09.370Z,47.68
2018-04-27T15:42:02.369Z,47.80
2018-04-27T15:43:02.427Z,47.49
2018-04-27T15:44:55.430Z,47.32
2018-04-27T15:45:55.483Z,47.13
2018-04-27T15:47:48.488Z,47.89
2018-04-27T15:48:48.545Z,47.51
2018-04-27T15:50:41.545Z,45.78
2018-04-27T15:51:41.601Z,45.50
2018-04-27T15:53:34.604Z,46.17
2018-04-27T15:54:34.666Z,45.78
2018-04-27T15:56:28.168Z,45.14
2018-04-27T15:57:28.274Z,45.23
2018-04-27T15:59:21.227Z,46.19
2018-04-27T16:00:21.290Z,45.04
2018-04-27T16:02:14.295Z,44.94
2018-04-27T16:03:14.353Z,44.75
2018-04-27T16:05:07.350Z,44.65
2018-04-27T16:06:07.412Z,45.32
2018-04-27T16:08:00.415Z,43.98
2018-04-27T16:09:00.468Z,44.56
2018-04-27T16:10:53.467Z,44.84
2018-04-27T16:11:53.525Z,45.14
2018-04-27T16:13:46.518Z,46.00
2018-04-27T16:14:46.590Z,46.58
2018-04-27T16:16:39.580Z,46.77
2018-04-27T16:17:39.638Z,46.00
2018-04-27T16:19:32.634Z,46.58
2018-04-27T16:20:32.695Z,46.96
2018-04-27T16:22:25.695Z,46.77
2018-04-27T16:23:25.754Z,47.32
2018-04-27T16:25:18.748Z,47.03
2018-04-27T16:26:18.809Z,47.63
2018-04-27T16:28:11.807Z,46.58
2018-04-27T16:29:11.870Z,46.48
2018-04-27T16:31:04.869Z,45.52
2018-04-27T16:32:04.933Z,46.28
2018-04-27T16:33:57.923Z,46.84
2018-04-27T16:34:57.985Z,47.22
2018-04-27T16:36:50.983Z,47.32
2018-04-27T16:37:51.040Z,47.71
2018-04-27T16:39:44.060Z,47.71
2018-04-27T16:40:44.154Z,47.22
2018-04-27T16:42:37.101Z,47.80
2018-04-27T16:43:37.152Z,48.74
2018-04-27T16:45:30.145Z,48.18
2018-04-27T16:46:30.211Z,49.05
2018-04-27T16:48:23.222Z,47.99
2018-04-27T16:49:23.279Z,48.09
2018-04-27T16:51:16.274Z,49.62
2018-04-27T16:52:16.323Z,50.10
2018-04-27T16:54:09.316Z,48.66
2018-04-27T16:55:09.381Z,48.18
2018-04-27T16:57:02.385Z,49.62
2018-04-27T16:58:02.447Z,50.01
2018-04-27T16:59:55.437Z,50.17
2018-04-27T17:00:55.505Z,50.84
2018-04-27T17:02:48.501Z,51.23
2018-04-27T17:03:48.558Z,51.04
2018-04-27T17:05:41.549Z,52.28
2018-04-27T17:06:41.621Z,51.90
2018-04-27T17:08:34.610Z,52.28
2018-04-27T17:09:34.746Z,52.38
2018-04-27T17:11:27.667Z,52.48
2018-04-27T17:12:27.722Z,52.86
2018-04-27T17:14:20.720Z,53.22
2018-04-27T17:15:20.783Z,53.41
2018-04-27T17:17:13.796Z,54.56
2018-04-27T17:18:13.839Z,54.46
2018-04-27T17:20:06.838Z,53.22
2018-04-27T17:21:06.900Z,52.16
2018-04-27T17:22:59.899Z,52.83
2018-04-27T17:23:59.961Z,52.93
2018-04-27T17:25:52.947Z,52.55
2018-04-27T17:26:53.010Z,53.31
2018-04-27T17:28:46.033Z,53.03
2018-04-27T17:29:46.064Z,53.22
2018-04-27T17:31:39.064Z,53.41
2018-04-27T17:32:39.124Z,53.60
2018-04-27T17:34:32.123Z,53.70
2018-04-27T17:35:32.189Z,53.89
2018-04-27T17:37:25.187Z,53.38
2018-04-27T17:38:25.251Z,54.56
2018-04-27T17:40:18.306Z,54.15
2018-04-27T17:41:18.305Z,54.44
2018-04-27T17:43:11.304Z,54.72
2018-04-27T17:44:11.361Z,55.11
2018-04-27T17:46:04.351Z,54.15
2018-04-27T17:47:04.599Z,55.40
2018-04-27T17:48:57.405Z,55.87
2018-04-27T17:49:57.468Z,55.21
2018-04-27T17:51:50.470Z,55.40
2018-04-27T17:52:50.524Z,55.01
2018-04-27T17:54:44.025Z,55.30
2018-04-27T17:55:44.136Z,55.21
2018-04-27T17:57:37.091Z,55.58
2018-04-27T17:58:37.149Z,55.58
2018-04-27T18:00:30.146Z,55.87
2018-04-27T18:01:30.208Z,56.83
2018-04-27T18:03:23.210Z,56.32
2018-04-27T18:04:23.265Z,57.28
2018-04-27T18:06:16.265Z,57.19
2018-04-27T18:07:16.328Z,57.28
2018-04-27T18:09:09.324Z,57.57
2018-04-27T18:10:09.385Z,57.57
2018-04-27T18:12:02.507Z,57.57
2018-04-27T18:13:02.443Z,57.76
2018-04-27T18:14:55.433Z,57.95
2018-04-27T18:15:55.498Z,58.53
2018-04-27T18:17:48.628Z,58.81
2018-04-27T18:18:48.555Z,58.81
2018-04-27T18:20:41.548Z,59.68
2018-04-27T18:21:41.611Z,59.48
2018-04-27T18:23:34.624Z,59.94
2018-04-27T18:24:34.676Z,60.51
2018-04-27T18:26:27.669Z,59.84
2018-04-27T18:27:27.735Z,60.32
2018-04-27T18:29:20.726Z,59.75
2018-04-27T18:30:20.785Z,61.28
2018-04-27T18:32:13.806Z,61.08
2018-04-27T18:33:13.921Z,60.61
2018-04-27T18:35:06.840Z,61.08
2018-04-27T18:36:06.911Z,60.99